Monday, June 25, 2018, 9:34 AM EDT
Back to Local

KSLK, Adirondack Regional Airport

Location: Saranac Lake, NY, United States Lat: 44.4
Local Time: 9:34 AM EDT (13:34 GMT) Lon: -74.2
Time Zone: US/Eastern Elev: 1663 ft

Show me the last for .
Show Decoded

2018-06-25 08:51 METAR KSLK 251251Z AUTO 36006KT 10SM SCT017 13/10 A3006 RMK AO2 SLP178 T01280100
                 =
2018-06-25 08:23 METAR KSLK 251223Z AUTO 32005KT 10SM FEW010 12/10 A3005 RMK AO2 T01170100 =
2018-06-25 07:51 METAR KSLK 251151Z AUTO VRB05KT 10SM OVC009 12/11 A3003 RMK AO2 CIG 008V012
                 SLP170 60000 70007 T01220106 10122 20094 52021 =
2018-06-25 07:30 METAR KSLK 251130Z AUTO VRB04KT 10SM BKN010 11/11 A3003 RMK AO2 CIG 008V012
                 T01110106 =
2018-06-25 07:17 METAR KSLK 251117Z AUTO VRB03KT 10SM SCT008 11/11 A3002 RMK AO2 T01110106 =
2018-06-25 06:51 METAR KSLK 251051Z AUTO VRB03KT 10SM BKN009 11/11 A3001 RMK AO2 CIG 006V011
                 SLP162 T01110106 =
2018-06-25 05:51 METAR KSLK 250951Z AUTO 00000KT 10SM OVC005 10/10 A2999 RMK AO2 CIG 004V009
                 SLP157 T01000100 =
2018-06-25 05:15 METAR KSLK 250915Z AUTO 01003KT 10SM BKN006 10/10 A2998 RMK AO2 T01000100 =
2018-06-25 05:04 METAR KSLK 250904Z AUTO 33003KT 10SM SCT006 BKN029 10/10 A2997 RMK AO2 T01000100
                 =
2018-06-25 04:51 METAR KSLK 250851Z AUTO 32004KT 10SM SCT029 10/10 A2997 RMK AO2 SLP148 60000
                 T01000100 51012 =
2018-06-25 03:51 METAR KSLK 250751Z AUTO 00000KT 10SM OVC060 11/11 A2996 RMK AO2 SLP144 T01110111
                 =
2018-06-25 02:51 METAR KSLK 250651Z AUTO 02003KT 10SM OVC060 12/12 A2995 RMK AO2 RAE0553 SLP139
                 P0000 T01220122 =
2018-06-25 01:58 METAR KSLK 250558Z AUTO VRB03KT 10SM SCT008 OVC050 12/12 A2994 RMK AO2 RAE53
                 P0000 T01220122 =
2018-06-25 01:51 METAR KSLK 250551Z AUTO VRB04KT 10SM -RA BKN008 BKN033 OVC050 12/12 A2993 RMK
                 AO2 RAE19B44 CIG 006V010 SLP134 P0001 60006 T01220122 10161 20122 51005 =
2018-06-25 01:41 METAR KSLK 250541Z AUTO VRB05KT 10SM BKN008 BKN032 OVC043 13/13 A2993 RMK AO2
                 RAE19 CIG 006V010 P0001 T01280128 =
2018-06-25 01:32 METAR KSLK 250532Z AUTO 01003KT 10SM SCT008 BKN029 OVC045 13/13 A2993 RMK AO2
                 RAE19 P0001 T01280128 =
2018-06-25 00:51 METAR KSLK 250451Z AUTO 34005KT 6SM -RA BR BKN007 BKN010 OVC028 13/13 A2993 RMK
                 AO2 RAB47 CIG 005V008 SLP133 P0000 T01280128 401890128 =
2018-06-25 00:48 METAR KSLK 250448Z AUTO VRB05KT 5SM -RA BR BKN007 BKN021 OVC028 13/13 A2993 RMK
                 AO2 RAB47 CIG 005V011 P0000 =
2018-06-25 00:37 METAR KSLK 250437Z AUTO 33003KT 7SM SCT005 BKN014 OVC026 13/13 A2993 RMK AO2
                 T01330133 =
2018-06-25 00:30 METAR KSLK 250430Z AUTO VRB03KT 5SM BR SCT003 BKN007 OVC022 13/13 A2993 RMK AO2
                 CIG 007V012 T01330133 =
2018-06-25 00:15 METAR KSLK 250415Z AUTO 35006KT 4SM BR BKN002 OVC012 13/13 A2993 RMK AO2
                 T01330133 =
2018-06-25 00:00 METAR KSLK 250400Z AUTO VRB05KT 2 1/2SM BR OVC002 13/13 A2992 RMK AO2 T01330133
                 =
2018-06-24 23:51 METAR KSLK 250351Z AUTO 33005KT 3SM BR OVC004 14/14 A2992 RMK AO2 CIG 002V007
                 SLP128 T01390139 =
2018-06-24 23:47 METAR KSLK 250347Z AUTO VRB05KT 2 1/2SM BR OVC004 14/14 A2992 RMK AO2 CIG
                 002V007 =
2018-06-24 23:40 METAR KSLK 250340Z AUTO VRB04KT 3SM BR BKN002 OVC006 14/14 A2991 RMK AO2
                 T01440144 =
2018-06-24 23:31 METAR KSLK 250331Z AUTO 00000KT 10SM BKN006 BKN021 OVC031 14/14 A2991 RMK AO2
                 CIG 004V010 T01440144 =
2018-06-24 23:21 METAR KSLK 250321Z AUTO 00000KT 10SM SCT006 BKN010 OVC033 14/14 A2991 RMK AO2
                 CIG 008V013 T01440144 =
2018-06-24 23:11 METAR KSLK 250311Z AUTO 00000KT 10SM FEW007 FEW022 OVC033 14/14 A2991 RMK AO2
                 T01440144 =
2018-06-24 22:51 METAR KSLK 250251Z AUTO 00000KT 10SM BKN033 OVC065 14/14 A2991 RMK AO2 RAE05
                 SLP127 P0000 60005 T01440144 51009 =
2018-06-24 21:51 METAR KSLK 250151Z AUTO 01004KT 4SM -RA BR FEW012 SCT039 OVC055 14/14 A2991 RMK
                 AO2 RAB01 SLP128 P0005 T01440144 =
2018-06-24 21:34 METAR KSLK 250134Z AUTO 02004KT 4SM RA BR SCT012 OVC055 15/15 A2991 RMK AO2
                 RAB01 P0002 T01500150 =
2018-06-24 21:25 METAR KSLK 250125Z AUTO 35004KT 6SM -RA BR BKN013 BKN049 OVC065 15/15 A2991 RMK
                 AO2 RAB01 P0001 T01500150 =
2018-06-24 20:51 METAR KSLK 250051Z AUTO 00000KT 10SM SCT020 OVC095 16/15 A2989 RMK AO2 RAB08E27
                 SLP120 P0000 T01560150 =
2018-06-24 20:23 METAR KSLK 250023Z AUTO 34004KT 10SM -RA BKN020 BKN029 OVC110 16/15 A2989 RMK
                 AO2 RAB08 P0000 T01610150 =
2018-06-24 19:51 METAR KSLK 242351Z AUTO 00000KT 10SM OVC100 16/16 A2988 RMK AO2 RAB31E44 SLP116
                 P0000 60001 T01610156 10189 20161 53006 =
2018-06-24 18:51 METAR KSLK 242251Z AUTO 01003KT 10SM OVC100 17/15 A2987 RMK AO2 SLP112 T01720150
                 =
2018-06-24 17:51 METAR KSLK 242151Z AUTO 36003KT 10SM OVC085 17/15 A2987 RMK AO2 RAB07E25 SLP111
                 P0000 T01720150 =
2018-06-24 16:51 METAR KSLK 242051Z AUTO 01003KT 10SM OVC070 18/14 A2986 RMK AO2 RAE1954 SLP109
                 P0000 60001 T01780144 53009 =
2018-06-24 15:51 METAR KSLK 241951Z AUTO 02005KT 10SM -RA FEW031 BKN046 OVC070 17/14 A2985 RMK
                 AO2 RAB21 SLP107 P0001 T01720144 =
2018-06-24 14:51 METAR KSLK 241851Z AUTO 12003KT 10SM SCT023 OVC035 18/14 A2984 RMK AO2 SLP102
                 T01830144 =
2018-06-24 13:51 METAR KSLK 241751Z AUTO 00000KT 10SM SCT022 BKN030 OVC035 18/14 A2984 RMK AO2
                 SLP099 T01830139 10189 20144 51000 =
2018-06-24 13:32 METAR KSLK 241732Z AUTO 01004KT 10SM SCT022 OVC031 19/14 A2984 RMK AO2 T01890139
                 =
2018-06-24 12:51 METAR KSLK 241651Z AUTO 00000KT 10SM BKN018 OVC026 18/14 A2984 RMK AO2 SLP099
                 T01780144 =
2018-06-24 11:51 METAR KSLK 241551Z AUTO 35004KT 10SM BKN017 OVC023 17/14 A2984 RMK AO2 SLP101
                 T01720139 =
2018-06-24 11:04 METAR KSLK 241504Z AUTO 03005KT 10SM OVC015 17/14 A2984 RMK AO2 T01670144 =
2018-06-24 10:51 METAR KSLK 241451Z AUTO VRB05KT 10SM BKN014 OVC020 17/14 A2983 RMK AO2 SLP100
                 T01670144 51007 =
2018-06-24 10:28 METAR KSLK 241428Z AUTO VRB03KT 10SM FEW008 SCT013 OVC019 16/15 A2983 RMK AO2
                 T01610150 =
2018-06-24 10:21 METAR KSLK 241421Z AUTO 34003KT 10SM SCT010 BKN013 OVC028 16/14 A2984 RMK AO2
                 T01610144 =
2018-06-24 09:51 METAR KSLK 241351Z AUTO 35005KT 10SM OVC008 16/14 A2983 RMK AO2 CIG 006V010
                 SLP099 T01560144 =

Support USWX by starting your Amazon purchase here.